sensor_id;sensor_type;location;lat;lon;timestamp;P1;durP1;ratioP1;P2;durP2;ratioP2
41623;SDS011;27319;50.306;18.926;2024-01-25T00:01:05;14.75;;;5.43;;
41623;SDS011;27319;50.306;18.926;2024-01-25T00:05:06;14.15;;;3.65;;
41623;SDS011;27319;50.306;18.926;2024-01-25T00:08:07;13.15;;;4.45;;
41623;SDS011;27319;50.306;18.926;2024-01-25T00:11:08;13.88;;;3.20;;
41623;SDS011;27319;50.306;18.926;2024-01-25T00:14:10;12.38;;;3.80;;
41623;SDS011;27319;50.306;18.926;2024-01-25T00:17:11;11.45;;;3.75;;
41623;SDS011;27319;50.306;18.926;2024-01-25T00:20:11;13.15;;;3.25;;
41623;SDS011;27319;50.306;18.926;2024-01-25T00:23:12;13.05;;;3.72;;
41623;SDS011;27319;50.306;18.926;2024-01-25T00:26:13;8.35;;;3.10;;
41623;SDS011;27319;50.306;18.926;2024-01-25T00:30:14;12.00;;;3.85;;
41623;SDS011;27319;50.306;18.926;2024-01-25T00:34:15;10.43;;;3.22;;
41623;SDS011;27319;50.306;18.926;2024-01-25T00:38:16;14.30;;;3.95;;
41623;SDS011;27319;50.306;18.926;2024-01-25T00:42:17;11.52;;;3.35;;
41623;SDS011;27319;50.306;18.926;2024-01-25T00:46:18;13.07;;;3.17;;
41623;SDS011;27319;50.306;18.926;2024-01-25T00:50:19;10.82;;;4.00;;
41623;SDS011;27319;50.306;18.926;2024-01-25T00:54:20;10.25;;;3.28;;
41623;SDS011;27319;50.306;18.926;2024-01-25T00:58:20;15.45;;;4.20;;
41623;SDS011;27319;50.306;18.926;2024-01-25T01:02:22;12.38;;;3.47;;
41623;SDS011;27319;50.306;18.926;2024-01-25T01:06:22;6.72;;;2.70;;
41623;SDS011;27319;50.306;18.926;2024-01-25T01:10:23;9.10;;;2.75;;
41623;SDS011;27319;50.306;18.926;2024-01-25T01:14:24;8.63;;;2.70;;
41623;SDS011;27319;50.306;18.926;2024-01-25T01:18:25;5.30;;;1.92;;
41623;SDS011;27319;50.306;18.926;2024-01-25T01:22:26;7.68;;;2.35;;
41623;SDS011;27319;50.306;18.926;2024-01-25T01:26:26;8.98;;;2.35;;
41623;SDS011;27319;50.306;18.926;2024-01-25T01:30:27;9.20;;;3.83;;
41623;SDS011;27319;50.306;18.926;2024-01-25T01:34:27;12.05;;;2.72;;
41623;SDS011;27319;50.306;18.926;2024-01-25T01:38:30;12.80;;;2.83;;
41623;SDS011;27319;50.306;18.926;2024-01-25T01:42:31;9.27;;;3.03;;
41623;SDS011;27319;50.306;18.926;2024-01-25T01:50:15;8.80;;;2.17;;
41623;SDS011;27319;50.306;18.926;2024-01-25T01:54:16;10.77;;;3.00;;
41623;SDS011;27319;50.306;18.926;2024-01-25T01:58:16;6.07;;;2.95;;
41623;SDS011;27319;50.306;18.926;2024-01-25T02:02:19;8.70;;;2.28;;
41623;SDS011;27319;50.306;18.926;2024-01-25T02:06:24;13.90;;;2.58;;
41623;SDS011;27319;50.306;18.926;2024-01-25T02:10:24;10.82;;;2.45;;
41623;SDS011;27319;50.306;18.926;2024-01-25T02:14:25;16.05;;;3.17;;
41623;SDS011;27319;50.306;18.926;2024-01-25T02:18:26;11.85;;;2.58;;
41623;SDS011;27319;50.306;18.926;2024-01-25T02:22:27;7.28;;;2.03;;
41623;SDS011;27319;50.306;18.926;2024-01-25T02:26:27;8.07;;;2.67;;
41623;SDS011;27319;50.306;18.926;2024-01-25T02:30:13;9.38;;;2.05;;
41623;SDS011;27319;50.306;18.926;2024-01-25T02:33:14;10.38;;;4.78;;
41623;SDS011;27319;50.306;18.926;2024-01-25T02:37:14;9.73;;;3.92;;
41623;SDS011;27319;50.306;18.926;2024-01-25T02:41:15;8.18;;;2.63;;
41623;SDS011;27319;50.306;18.926;2024-01-25T02:45:16;10.73;;;2.63;;
41623;SDS011;27319;50.306;18.926;2024-01-25T02:49:17;9.68;;;2.20;;
41623;SDS011;27319;50.306;18.926;2024-01-25T02:53:17;8.35;;;2.65;;
41623;SDS011;27319;50.306;18.926;2024-01-25T02:57:18;9.68;;;2.47;;
41623;SDS011;27319;50.306;18.926;2024-01-25T03:01:19;6.93;;;2.13;;
41623;SDS011;27319;50.306;18.926;2024-01-25T03:05:22;10.45;;;2.15;;
41623;SDS011;27319;50.306;18.926;2024-01-25T03:09:23;14.32;;;3.65;;
41623;SDS011;27319;50.306;18.926;2024-01-25T03:13:24;10.93;;;2.15;;
41623;SDS011;27319;50.306;18.926;2024-01-25T03:17:25;9.20;;;2.00;;
41623;SDS011;27319;50.306;18.926;2024-01-25T03:21:26;6.75;;;1.70;;
41623;SDS011;27319;50.306;18.926;2024-01-25T03:25:27;9.15;;;2.00;;
41623;SDS011;27319;50.306;18.926;2024-01-25T03:29:27;10.75;;;2.45;;
41623;SDS011;27319;50.306;18.926;2024-01-25T03:33:31;13.27;;;2.85;;
41623;SDS011;27319;50.306;18.926;2024-01-25T03:37:32;11.85;;;2.88;;
41623;SDS011;27319;50.306;18.926;2024-01-25T03:41:33;9.00;;;2.47;;
41623;SDS011;27319;50.306;18.926;2024-01-25T03:45:34;13.73;;;2.92;;
41623;SDS011;27319;50.306;18.926;2024-01-25T03:49:37;10.20;;;2.65;;
41623;SDS011;27319;50.306;18.926;2024-01-25T03:53:38;10.55;;;2.80;;
41623;SDS011;27319;50.306;18.926;2024-01-25T03:57:38;9.40;;;2.85;;
41623;SDS011;27319;50.306;18.926;2024-01-25T04:01:43;17.08;;;4.93;;
41623;SDS011;27319;50.306;18.926;2024-01-25T04:05:43;11.43;;;2.85;;
41623;SDS011;27319;50.306;18.926;2024-01-25T04:09:44;13.18;;;3.28;;
41623;SDS011;27319;50.306;18.926;2024-01-25T04:13:45;11.45;;;3.13;;
41623;SDS011;27319;50.306;18.926;2024-01-25T04:17:46;11.82;;;2.63;;
41623;SDS011;27319;50.306;18.926;2024-01-25T04:21:47;9.68;;;2.55;;
41623;SDS011;27319;50.306;18.926;2024-01-25T04:25:48;12.93;;;2.45;;
41623;SDS011;27319;50.306;18.926;2024-01-25T04:29:48;10.07;;;2.78;;
41623;SDS011;27319;50.306;18.926;2024-01-25T04:33:49;8.27;;;2.92;;
41623;SDS011;27319;50.306;18.926;2024-01-25T04:37:50;10.40;;;3.15;;
41623;SDS011;27319;50.306;18.926;2024-01-25T04:41:51;18.20;;;2.75;;
41623;SDS011;27319;50.306;18.926;2024-01-25T04:45:47;10.45;;;3.25;;
41623;SDS011;27319;50.306;18.926;2024-01-25T04:49:48;10.43;;;2.50;;
41623;SDS011;27319;50.306;18.926;2024-01-25T04:53:48;10.60;;;3.38;;
41623;SDS011;27319;50.306;18.926;2024-01-25T04:57:49;13.95;;;3.17;;
41623;SDS011;27319;50.306;18.926;2024-01-25T05:01:50;11.45;;;3.58;;
41623;SDS011;27319;50.306;18.926;2024-01-25T05:05:51;10.88;;;5.15;;
41623;SDS011;27319;50.306;18.926;2024-01-25T05:09:52;16.67;;;3.85;;
41623;SDS011;27319;50.306;18.926;2024-01-25T05:13:54;10.45;;;3.30;;
41623;SDS011;27319;50.306;18.926;2024-01-25T05:17:55;14.82;;;2.53;;
41623;SDS011;27319;50.306;18.926;2024-01-25T05:21:56;11.60;;;3.22;;
41623;SDS011;27319;50.306;18.926;2024-01-25T05:25:57;9.32;;;2.55;;
41623;SDS011;27319;50.306;18.926;2024-01-25T05:30:00;13.52;;;4.40;;
41623;SDS011;27319;50.306;18.926;2024-01-25T05:34:01;10.68;;;3.65;;
41623;SDS011;27319;50.306;18.926;2024-01-25T05:38:02;13.15;;;3.10;;
41623;SDS011;27319;50.306;18.926;2024-01-25T05:42:03;13.85;;;3.05;;
41623;SDS011;27319;50.306;18.926;2024-01-25T05:46:04;9.35;;;3.90;;
41623;SDS011;27319;50.306;18.926;2024-01-25T05:50:04;8.82;;;2.50;;
41623;SDS011;27319;50.306;18.926;2024-01-25T05:54:05;11.07;;;2.55;;
41623;SDS011;27319;50.306;18.926;2024-01-25T05:58:06;7.80;;;2.83;;
41623;SDS011;27319;50.306;18.926;2024-01-25T06:02:07;7.43;;;2.50;;
41623;SDS011;27319;50.306;18.926;2024-01-25T06:06:08;8.13;;;2.70;;
41623;SDS011;27319;50.306;18.926;2024-01-25T06:10:09;12.38;;;2.88;;
41623;SDS011;27319;50.306;18.926;2024-01-25T06:13:10;15.13;;;3.65;;
41623;SDS011;27319;50.306;18.926;2024-01-25T06:16:51;13.23;;;2.83;;
41623;SDS011;27319;50.306;18.926;2024-01-25T06:19:51;15.93;;;3.65;;
41623;SDS011;27319;50.306;18.926;2024-01-25T06:22:53;10.13;;;2.85;;
41623;SDS011;27319;50.306;18.926;2024-01-25T06:26:53;13.68;;;3.28;;
41623;SDS011;27319;50.306;18.926;2024-01-25T06:29:54;12.93;;;3.00;;
41623;SDS011;27319;50.306;18.926;2024-01-25T06:33:55;9.85;;;3.13;;
41623;SDS011;27319;50.306;18.926;2024-01-25T06:37:56;11.98;;;3.30;;
41623;SDS011;27319;50.306;18.926;2024-01-25T06:41:04;14.05;;;3.28;;
41623;SDS011;27319;50.306;18.926;2024-01-25T06:45:05;11.00;;;3.63;;
41623;SDS011;27319;50.306;18.926;2024-01-25T06:49:05;7.07;;;3.30;;
41623;SDS011;27319;50.306;18.926;2024-01-25T06:53:06;7.38;;;2.50;;
41623;SDS011;27319;50.306;18.926;2024-01-25T06:57:07;8.98;;;3.45;;
41623;SDS011;27319;50.306;18.926;2024-01-25T07:01:08;14.52;;;3.17;;
41623;SDS011;27319;50.306;18.926;2024-01-25T07:05:09;12.25;;;3.22;;
41623;SDS011;27319;50.306;18.926;2024-01-25T07:09:10;10.25;;;3.00;;
41623;SDS011;27319;50.306;18.926;2024-01-25T07:13:11;11.63;;;3.70;;
41623;SDS011;27319;50.306;18.926;2024-01-25T07:17:12;9.30;;;3.17;;
41623;SDS011;27319;50.306;18.926;2024-01-25T07:21:13;14.35;;;3.63;;
41623;SDS011;27319;50.306;18.926;2024-01-25T07:25:14;26.45;;;8.07;;
41623;SDS011;27319;50.306;18.926;2024-01-25T07:29:14;15.45;;;6.50;;
41623;SDS011;27319;50.306;18.926;2024-01-25T07:33:15;19.52;;;7.40;;
41623;SDS011;27319;50.306;18.926;2024-01-25T07:37:16;10.35;;;3.08;;
41623;SDS011;27319;50.306;18.926;2024-01-25T07:41:18;11.80;;;4.00;;
41623;SDS011;27319;50.306;18.926;2024-01-25T07:45:18;12.55;;;4.63;;
41623;SDS011;27319;50.306;18.926;2024-01-25T07:49:19;8.65;;;3.13;;
41623;SDS011;27319;50.306;18.926;2024-01-25T07:53:23;16.95;;;5.88;;
41623;SDS011;27319;50.306;18.926;2024-01-25T07:57:24;17.33;;;5.10;;
41623;SDS011;27319;50.306;18.926;2024-01-25T08:01:25;15.18;;;4.70;;
41623;SDS011;27319;50.306;18.926;2024-01-25T08:05:26;14.23;;;3.72;;
41623;SDS011;27319;50.306;18.926;2024-01-25T08:09:26;18.02;;;5.03;;
41623;SDS011;27319;50.306;18.926;2024-01-25T08:13:27;15.18;;;5.60;;
41623;SDS011;27319;50.306;18.926;2024-01-25T08:17:28;12.38;;;3.25;;
41623;SDS011;27319;50.306;18.926;2024-01-25T08:21:29;19.05;;;3.63;;
41623;SDS011;27319;50.306;18.926;2024-01-25T08:25:30;16.98;;;4.63;;
41623;SDS011;27319;50.306;18.926;2024-01-25T08:28:31;22.50;;;3.20;;
41623;SDS011;27319;50.306;18.926;2024-01-25T08:31:32;20.45;;;4.65;;
41623;SDS011;27319;50.306;18.926;2024-01-25T08:35:33;18.67;;;5.65;;
41623;SDS011;27319;50.306;18.926;2024-01-25T08:39:34;13.80;;;5.25;;
41623;SDS011;27319;50.306;18.926;2024-01-25T08:43:34;17.92;;;5.18;;
41623;SDS011;27319;50.306;18.926;2024-01-25T08:47:36;18.67;;;6.65;;
41623;SDS011;27319;50.306;18.926;2024-01-25T08:51:36;19.17;;;6.03;;
41623;SDS011;27319;50.306;18.926;2024-01-25T08:54:37;11.73;;;5.20;;
41623;SDS011;27319;50.306;18.926;2024-01-25T08:57:38;13.55;;;4.07;;
41623;SDS011;27319;50.306;18.926;2024-01-25T09:00:41;18.15;;;5.07;;
41623;SDS011;27319;50.306;18.926;2024-01-25T09:04:37;18.30;;;4.82;;
41623;SDS011;27319;50.306;18.926;2024-01-25T09:08:37;16.23;;;3.80;;
41623;SDS011;27319;50.306;18.926;2024-01-25T09:11:38;15.05;;;3.60;;
41623;SDS011;27319;50.306;18.926;2024-01-25T09:15:39;11.70;;;3.63;;
41623;SDS011;27319;50.306;18.926;2024-01-25T09:19:40;17.25;;;4.28;;
41623;SDS011;27319;50.306;18.926;2024-01-25T09:23:41;17.90;;;5.70;;
41623;SDS011;27319;50.306;18.926;2024-01-25T09:27:42;14.88;;;3.53;;
41623;SDS011;27319;50.306;18.926;2024-01-25T09:31:38;11.93;;;3.92;;
41623;SDS011;27319;50.306;18.926;2024-01-25T09:34:38;13.73;;;3.67;;
41623;SDS011;27319;50.306;18.926;2024-01-25T09:38:39;18.00;;;4.82;;
41623;SDS011;27319;50.306;18.926;2024-01-25T09:41:40;21.08;;;4.63;;
41623;SDS011;27319;50.306;18.926;2024-01-25T09:44:42;14.70;;;5.15;;
41623;SDS011;27319;50.306;18.926;2024-01-25T09:47:46;15.65;;;4.13;;
41623;SDS011;27319;50.306;18.926;2024-01-25T09:51:47;19.55;;;4.93;;
41623;SDS011;27319;50.306;18.926;2024-01-25T09:56:10;13.63;;;4.43;;
41623;SDS011;27319;50.306;18.926;2024-01-25T09:59:49;19.75;;;3.83;;
41623;SDS011;27319;50.306;18.926;2024-01-25T10:03:50;12.68;;;4.07;;
41623;SDS011;27319;50.306;18.926;2024-01-25T10:07:50;14.40;;;4.35;;
41623;SDS011;27319;50.306;18.926;2024-01-25T10:10:54;16.50;;;5.13;;
41623;SDS011;27319;50.306;18.926;2024-01-25T10:14:55;14.27;;;4.40;;
41623;SDS011;27319;50.306;18.926;2024-01-25T10:18:56;24.45;;;5.78;;
41623;SDS011;27319;50.306;18.926;2024-01-25T10:21:57;19.00;;;6.25;;
41623;SDS011;27319;50.306;18.926;2024-01-25T10:25:57;16.25;;;4.30;;
41623;SDS011;27319;50.306;18.926;2024-01-25T10:29:58;17.10;;;5.32;;
41623;SDS011;27319;50.306;18.926;2024-01-25T10:33:59;22.77;;;7.97;;
41623;SDS011;27319;50.306;18.926;2024-01-25T10:37:59;18.58;;;4.65;;
41623;SDS011;27319;50.306;18.926;2024-01-25T10:42:00;23.38;;;6.72;;
41623;SDS011;27319;50.306;18.926;2024-01-25T10:46:01;16.27;;;5.35;;
41623;SDS011;27319;50.306;18.926;2024-01-25T10:50:02;25.05;;;4.93;;
41623;SDS011;27319;50.306;18.926;2024-01-25T10:54:09;21.35;;;5.53;;
41623;SDS011;27319;50.306;18.926;2024-01-25T10:58:12;21.17;;;5.57;;
41623;SDS011;27319;50.306;18.926;2024-01-25T11:02:14;19.95;;;7.80;;
41623;SDS011;27319;50.306;18.926;2024-01-25T11:06:15;16.75;;;4.95;;
41623;SDS011;27319;50.306;18.926;2024-01-25T11:09:58;14.52;;;4.97;;
41623;SDS011;27319;50.306;18.926;2024-01-25T11:13:59;22.05;;;6.47;;
41623;SDS011;27319;50.306;18.926;2024-01-25T11:18:00;22.65;;;7.53;;
41623;SDS011;27319;50.306;18.926;2024-01-25T11:22:02;24.65;;;5.95;;
41623;SDS011;27319;50.306;18.926;2024-01-25T11:26:01;23.25;;;4.78;;
41623;SDS011;27319;50.306;18.926;2024-01-25T11:30:03;18.23;;;4.28;;
41623;SDS011;27319;50.306;18.926;2024-01-25T11:34:03;22.77;;;7.57;;
41623;SDS011;27319;50.306;18.926;2024-01-25T11:38:04;19.08;;;6.95;;
41623;SDS011;27319;50.306;18.926;2024-01-25T11:42:05;19.70;;;5.38;;
41623;SDS011;27319;50.306;18.926;2024-01-25T11:46:06;17.67;;;6.15;;
41623;SDS011;27319;50.306;18.926;2024-01-25T11:50:08;15.65;;;4.70;;
41623;SDS011;27319;50.306;18.926;2024-01-25T11:54:07;15.10;;;5.32;;
41623;SDS011;27319;50.306;18.926;2024-01-25T11:58:08;18.65;;;4.93;;
41623;SDS011;27319;50.306;18.926;2024-01-25T12:02:09;18.73;;;4.30;;
41623;SDS011;27319;50.306;18.926;2024-01-25T12:06:10;17.88;;;5.43;;
41623;SDS011;27319;50.306;18.926;2024-01-25T12:10:15;19.08;;;4.53;;
41623;SDS011;27319;50.306;18.926;2024-01-25T12:14:11;13.82;;;4.03;;
41623;SDS011;27319;50.306;18.926;2024-01-25T12:18:12;13.10;;;5.15;;
41623;SDS011;27319;50.306;18.926;2024-01-25T12:22:19;14.63;;;4.65;;
41623;SDS011;27319;50.306;18.926;2024-01-25T12:26:15;19.02;;;5.28;;
41623;SDS011;27319;50.306;18.926;2024-01-25T12:30:15;20.35;;;6.43;;
41623;SDS011;27319;50.306;18.926;2024-01-25T12:34:16;23.95;;;6.85;;
41623;SDS011;27319;50.306;18.926;2024-01-25T12:38:17;26.98;;;10.43;;
41623;SDS011;27319;50.306;18.926;2024-01-25T12:42:18;18.30;;;7.22;;
41623;SDS011;27319;50.306;18.926;2024-01-25T12:46:19;19.50;;;7.35;;
41623;SDS011;27319;50.306;18.926;2024-01-25T12:50:20;17.92;;;4.30;;
41623;SDS011;27319;50.306;18.926;2024-01-25T12:54:20;10.10;;;5.07;;
41623;SDS011;27319;50.306;18.926;2024-01-25T12:58:21;16.63;;;5.00;;
41623;SDS011;27319;50.306;18.926;2024-01-25T13:02:23;22.00;;;6.50;;
41623;SDS011;27319;50.306;18.926;2024-01-25T13:06:07;17.55;;;5.95;;
41623;SDS011;27319;50.306;18.926;2024-01-25T13:09:07;14.55;;;4.88;;
41623;SDS011;27319;50.306;18.926;2024-01-25T13:13:08;14.73;;;5.53;;
41623;SDS011;27319;50.306;18.926;2024-01-25T13:17:09;20.15;;;6.97;;
41623;SDS011;27319;50.306;18.926;2024-01-25T13:21:10;15.95;;;4.95;;
41623;SDS011;27319;50.306;18.926;2024-01-25T13:25:10;22.50;;;6.45;;
41623;SDS011;27319;50.306;18.926;2024-01-25T13:29:11;17.27;;;7.13;;
41623;SDS011;27319;50.306;18.926;2024-01-25T13:32:13;19.05;;;6.28;;
41623;SDS011;27319;50.306;18.926;2024-01-25T13:35:14;13.68;;;5.32;;
41623;SDS011;27319;50.306;18.926;2024-01-25T13:39:14;19.48;;;5.40;;
41623;SDS011;27319;50.306;18.926;2024-01-25T13:43:15;15.50;;;4.85;;
41623;SDS011;27319;50.306;18.926;2024-01-25T13:46:32;13.48;;;4.63;;
41623;SDS011;27319;50.306;18.926;2024-01-25T13:49:33;22.70;;;6.32;;
41623;SDS011;27319;50.306;18.926;2024-01-25T13:52:35;19.90;;;5.22;;
41623;SDS011;27319;50.306;18.926;2024-01-25T13:55:36;18.88;;;6.45;;
41623;SDS011;27319;50.306;18.926;2024-01-25T13:59:37;27.13;;;6.20;;
41623;SDS011;27319;50.306;18.926;2024-01-25T14:03:37;23.23;;;6.57;;
41623;SDS011;27319;50.306;18.926;2024-01-25T14:07:38;16.52;;;5.10;;
41623;SDS011;27319;50.306;18.926;2024-01-25T14:11:21;18.50;;;6.30;;
41623;SDS011;27319;50.306;18.926;2024-01-25T14:15:22;13.45;;;4.68;;
41623;SDS011;27319;50.306;18.926;2024-01-25T14:18:22;21.52;;;5.78;;
41623;SDS011;27319;50.306;18.926;2024-01-25T14:21:23;15.60;;;5.90;;
41623;SDS011;27319;50.306;18.926;2024-01-25T14:24:24;22.08;;;6.13;;
41623;SDS011;27319;50.306;18.926;2024-01-25T14:27:25;22.38;;;5.38;;
41623;SDS011;27319;50.306;18.926;2024-01-25T14:30:27;12.20;;;4.18;;
41623;SDS011;27319;50.306;18.926;2024-01-25T14:33:28;15.48;;;4.85;;
41623;SDS011;27319;50.306;18.926;2024-01-25T14:36:29;19.70;;;6.57;;
41623;SDS011;27319;50.306;18.926;2024-01-25T14:39:30;21.83;;;6.97;;
41623;SDS011;27319;50.306;18.926;2024-01-25T14:42:32;27.33;;;8.55;;
41623;SDS011;27319;50.306;18.926;2024-01-25T14:45:33;23.92;;;7.50;;
41623;SDS011;27319;50.306;18.926;2024-01-25T14:48:36;15.95;;;4.65;;
41623;SDS011;27319;50.306;18.926;2024-01-25T14:51:39;17.42;;;7.13;;
41623;SDS011;27319;50.306;18.926;2024-01-25T14:54:40;28.55;;;7.47;;
41623;SDS011;27319;50.306;18.926;2024-01-25T14:57:41;22.20;;;5.50;;
41623;SDS011;27319;50.306;18.926;2024-01-25T15:00:46;17.60;;;5.18;;
41623;SDS011;27319;50.306;18.926;2024-01-25T15:04:51;13.63;;;5.63;;
41623;SDS011;27319;50.306;18.926;2024-01-25T15:08:27;22.88;;;5.55;;
41623;SDS011;27319;50.306;18.926;2024-01-25T15:12:28;18.85;;;6.53;;
41623;SDS011;27319;50.306;18.926;2024-01-25T15:16:29;29.60;;;8.50;;
41623;SDS011;27319;50.306;18.926;2024-01-25T15:20:29;22.80;;;8.68;;
41623;SDS011;27319;50.306;18.926;2024-01-25T15:24:44;22.70;;;8.50;;
41623;SDS011;27319;50.306;18.926;2024-01-25T15:28:44;27.27;;;10.15;;
41623;SDS011;27319;50.306;18.926;2024-01-25T15:32:45;17.50;;;7.55;;
41623;SDS011;27319;50.306;18.926;2024-01-25T15:36:46;24.90;;;7.78;;
41623;SDS011;27319;50.306;18.926;2024-01-25T15:40:47;31.27;;;7.30;;
41623;SDS011;27319;50.306;18.926;2024-01-25T15:44:48;26.45;;;10.90;;
41623;SDS011;27319;50.306;18.926;2024-01-25T15:47:49;23.60;;;9.48;;
41623;SDS011;27319;50.306;18.926;2024-01-25T15:50:50;22.48;;;8.60;;
41623;SDS011;27319;50.306;18.926;2024-01-25T15:54:50;35.45;;;13.88;;
41623;SDS011;27319;50.306;18.926;2024-01-25T15:58:51;22.80;;;6.95;;
41623;SDS011;27319;50.306;18.926;2024-01-25T16:01:53;32.30;;;10.07;;
41623;SDS011;27319;50.306;18.926;2024-01-25T16:04:54;33.88;;;10.80;;
41623;SDS011;27319;50.306;18.926;2024-01-25T16:08:10;24.38;;;10.35;;
41623;SDS011;27319;50.306;18.926;2024-01-25T16:11:11;32.28;;;9.23;;
41623;SDS011;27319;50.306;18.926;2024-01-25T16:14:12;27.20;;;9.90;;
41623;SDS011;27319;50.306;18.926;2024-01-25T16:18:13;23.17;;;7.50;;
41623;SDS011;27319;50.306;18.926;2024-01-25T16:21:14;37.58;;;12.35;;
41623;SDS011;27319;50.306;18.926;2024-01-25T16:24:15;30.15;;;11.55;;
41623;SDS011;27319;50.306;18.926;2024-01-25T16:27:15;45.17;;;14.13;;
41623;SDS011;27319;50.306;18.926;2024-01-25T16:30:17;23.85;;;7.45;;
41623;SDS011;27319;50.306;18.926;2024-01-25T16:33:17;29.20;;;8.45;;
41623;SDS011;27319;50.306;18.926;2024-01-25T16:36:19;28.55;;;8.75;;
41623;SDS011;27319;50.306;18.926;2024-01-25T16:39:22;28.70;;;8.25;;
41623;SDS011;27319;50.306;18.926;2024-01-25T16:42:23;21.52;;;7.43;;
41623;SDS011;27319;50.306;18.926;2024-01-25T16:46:24;24.00;;;7.38;;
41623;SDS011;27319;50.306;18.926;2024-01-25T16:49:24;32.85;;;9.77;;
41623;SDS011;27319;50.306;18.926;2024-01-25T16:52:25;26.25;;;8.40;;
41623;SDS011;27319;50.306;18.926;2024-01-25T16:55:26;20.75;;;6.72;;
41623;SDS011;27319;50.306;18.926;2024-01-25T16:58:27;21.60;;;6.65;;
41623;SDS011;27319;50.306;18.926;2024-01-25T17:01:29;18.52;;;6.13;;
41623;SDS011;27319;50.306;18.926;2024-01-25T17:04:30;22.33;;;6.53;;
41623;SDS011;27319;50.306;18.926;2024-01-25T17:08:13;28.77;;;9.38;;
41623;SDS011;27319;50.306;18.926;2024-01-25T17:11:13;23.73;;;7.13;;
41623;SDS011;27319;50.306;18.926;2024-01-25T17:14:14;18.17;;;6.22;;
41623;SDS011;27319;50.306;18.926;2024-01-25T17:18:15;14.77;;;5.35;;
41623;SDS011;27319;50.306;18.926;2024-01-25T17:22:16;18.33;;;5.82;;
41623;SDS011;27319;50.306;18.926;2024-01-25T17:26:17;19.08;;;6.30;;
41623;SDS011;27319;50.306;18.926;2024-01-25T17:29:53;20.42;;;7.40;;
41623;SDS011;27319;50.306;18.926;2024-01-25T17:32:53;18.70;;;6.55;;
41623;SDS011;27319;50.306;18.926;2024-01-25T17:36:54;19.38;;;5.80;;
41623;SDS011;27319;50.306;18.926;2024-01-25T17:39:58;20.35;;;5.90;;
41623;SDS011;27319;50.306;18.926;2024-01-25T17:43:02;30.05;;;9.63;;
41623;SDS011;27319;50.306;18.926;2024-01-25T17:47:03;26.48;;;7.05;;
41623;SDS011;27319;50.306;18.926;2024-01-25T17:51:04;24.65;;;8.25;;
41623;SDS011;27319;50.306;18.926;2024-01-25T17:54:04;19.30;;;7.07;;
41623;SDS011;27319;50.306;18.926;2024-01-25T17:57:06;13.90;;;6.32;;
41623;SDS011;27319;50.306;18.926;2024-01-25T18:00:07;21.25;;;5.57;;
41623;SDS011;27319;50.306;18.926;2024-01-25T18:03:08;19.70;;;6.15;;
41623;SDS011;27319;50.306;18.926;2024-01-25T18:06:09;22.67;;;5.80;;
41623;SDS011;27319;50.306;18.926;2024-01-25T18:09:13;21.85;;;5.43;;
41623;SDS011;27319;50.306;18.926;2024-01-25T18:12:14;21.00;;;6.20;;
41623;SDS011;27319;50.306;18.926;2024-01-25T18:15:15;23.77;;;7.60;;
41623;SDS011;27319;50.306;18.926;2024-01-25T18:18:21;33.78;;;8.18;;
41623;SDS011;27319;50.306;18.926;2024-01-25T18:22:21;22.65;;;8.40;;
41623;SDS011;27319;50.306;18.926;2024-01-25T18:26:22;24.75;;;7.63;;
41623;SDS011;27319;50.306;18.926;2024-01-25T18:29:26;32.22;;;8.60;;
41623;SDS011;27319;50.306;18.926;2024-01-25T18:32:30;31.42;;;8.32;;
41623;SDS011;27319;50.306;18.926;2024-01-25T18:36:30;26.30;;;8.55;;
41623;SDS011;27319;50.306;18.926;2024-01-25T18:40:31;21.83;;;7.63;;
41623;SDS011;27319;50.306;18.926;2024-01-25T18:44:32;25.75;;;8.93;;
41623;SDS011;27319;50.306;18.926;2024-01-25T18:48:08;26.02;;;9.90;;
41623;SDS011;27319;50.306;18.926;2024-01-25T18:51:09;25.88;;;10.57;;
41623;SDS011;27319;50.306;18.926;2024-01-25T18:54:10;32.75;;;11.98;;
41623;SDS011;27319;50.306;18.926;2024-01-25T18:57:12;24.80;;;9.70;;
41623;SDS011;27319;50.306;18.926;2024-01-25T19:01:13;26.20;;;9.73;;
41623;SDS011;27319;50.306;18.926;2024-01-25T19:04:14;32.35;;;9.18;;
41623;SDS011;27319;50.306;18.926;2024-01-25T19:07:16;24.60;;;9.35;;
41623;SDS011;27319;50.306;18.926;2024-01-25T19:10:18;23.40;;;8.40;;
41623;SDS011;27319;50.306;18.926;2024-01-25T19:13:23;25.85;;;8.07;;
41623;SDS011;27319;50.306;18.926;2024-01-25T19:17:23;26.40;;;9.27;;
41623;SDS011;27319;50.306;18.926;2024-01-25T19:21:24;24.05;;;7.57;;
41623;SDS011;27319;50.306;18.926;2024-01-25T19:24:45;36.78;;;8.30;;
41623;SDS011;27319;50.306;18.926;2024-01-25T19:27:46;20.08;;;6.57;;
41623;SDS011;27319;50.306;18.926;2024-01-25T19:30:47;22.27;;;7.97;;
41623;SDS011;27319;50.306;18.926;2024-01-25T19:33:48;15.20;;;6.05;;
41623;SDS011;27319;50.306;18.926;2024-01-25T19:37:48;21.52;;;8.57;;
41623;SDS011;27319;50.306;18.926;2024-01-25T19:41:49;23.80;;;8.07;;
41623;SDS011;27319;50.306;18.926;2024-01-25T19:45:50;26.92;;;8.00;;
41623;SDS011;27319;50.306;18.926;2024-01-25T19:49:51;25.60;;;8.57;;
41623;SDS011;27319;50.306;18.926;2024-01-25T19:53:53;24.67;;;7.43;;
41623;SDS011;27319;50.306;18.926;2024-01-25T19:57:54;16.83;;;5.88;;
41623;SDS011;27319;50.306;18.926;2024-01-25T20:01:54;24.17;;;7.05;;
41623;SDS011;27319;50.306;18.926;2024-01-25T20:05:55;15.35;;;5.05;;
41623;SDS011;27319;50.306;18.926;2024-01-25T20:09:57;28.20;;;6.93;;
41623;SDS011;27319;50.306;18.926;2024-01-25T20:13:57;17.30;;;5.80;;
41623;SDS011;27319;50.306;18.926;2024-01-25T20:17:58;24.15;;;7.80;;
41623;SDS011;27319;50.306;18.926;2024-01-25T20:20:59;26.40;;;8.07;;
41623;SDS011;27319;50.306;18.926;2024-01-25T20:25:00;28.40;;;7.93;;
41623;SDS011;27319;50.306;18.926;2024-01-25T20:29:01;30.83;;;10.05;;
41623;SDS011;27319;50.306;18.926;2024-01-25T20:33:02;26.30;;;8.90;;
41623;SDS011;27319;50.306;18.926;2024-01-25T20:36:04;35.15;;;10.32;;
41623;SDS011;27319;50.306;18.926;2024-01-25T20:40:07;29.08;;;9.93;;
41623;SDS011;27319;50.306;18.926;2024-01-25T20:44:07;31.60;;;9.27;;
41623;SDS011;27319;50.306;18.926;2024-01-25T20:48:09;30.00;;;9.65;;
41623;SDS011;27319;50.306;18.926;2024-01-25T20:52:09;33.65;;;10.48;;
41623;SDS011;27319;50.306;18.926;2024-01-25T20:56:10;30.27;;;10.70;;
41623;SDS011;27319;50.306;18.926;2024-01-25T21:00:10;27.73;;;10.05;;
41623;SDS011;27319;50.306;18.926;2024-01-25T21:04:11;35.30;;;10.25;;
41623;SDS011;27319;50.306;18.926;2024-01-25T21:08:12;26.85;;;8.98;;
41623;SDS011;27319;50.306;18.926;2024-01-25T21:12:13;33.78;;;10.10;;
41623;SDS011;27319;50.306;18.926;2024-01-25T21:15:14;34.38;;;9.85;;
41623;SDS011;27319;50.306;18.926;2024-01-25T21:18:15;36.88;;;13.32;;
41623;SDS011;27319;50.306;18.926;2024-01-25T21:21:58;26.80;;;8.82;;
41623;SDS011;27319;50.306;18.926;2024-01-25T21:25:00;32.28;;;10.20;;
41623;SDS011;27319;50.306;18.926;2024-01-25T21:28:01;28.80;;;8.38;;
41623;SDS011;27319;50.306;18.926;2024-01-25T21:32:02;22.83;;;7.22;;
41623;SDS011;27319;50.306;18.926;2024-01-25T21:35:04;20.88;;;7.15;;
41623;SDS011;27319;50.306;18.926;2024-01-25T21:38:05;29.48;;;7.90;;
41623;SDS011;27319;50.306;18.926;2024-01-25T21:42:06;31.20;;;10.23;;
41623;SDS011;27319;50.306;18.926;2024-01-25T21:46:08;32.85;;;9.45;;